Rosebud, Illinois
Current Conditions -  °F | °C
As of 4:35 AM on Saturday 22 Nov 2014 (Local Time) from KM30 Reporting Station
Scattered Clouds Scattered Clouds  
Wind Chill: 51°   Ceiling: Unl
Heat Index: 51°   Visibility: 10mi
Dew Point: 42°   Wind: 5mph
Humidity: 71%   Direction: 160°SSE
Pressure: 30.24"   Gusts: NA
Location:  37.3224°N, 88.5774°W
Report Text: KM30 221035Z AUTO 16004KT 10SM SCT080 SCT095 10/05 A3024 RMK AO2 T01030053
Loading
Personal Weather Stations






























Interactive Weather Map New forecast layout! Learn more

10-Day Weather Forecast

Advertisements
Track Severe Weather on mobile